X  Schlie├čen METAR Luftfahrt Wetterdaten     EDDK Cologne Bonn Airport
Temperatur
18°C Temperatur
12°C Taupunkt
68% Feuchtigkeit



Wind
8 MPS
13 KM/S
4 M/S
7 KTS



220°
SW
Aktuelle Wetterlage

Klar Klar
Luftdruck 1019.98 (hPa) - 30.12 (inHg)
Sichtweite 6 (Meile) - 9.7 (Km)
Flughafen
Flughafen Code EDDK

Position : Cologne Bonn Airport
Entfernung: 56 (mi)

Metar:
EDDK 132150Z AUTO 22007KT CAVOK 18/12 Q1020 NOSIG

Zeit: 2024-04-13 23:50 CEST